Home   Weather   Spain   Puerto del Rosario   Past weeks
Flag for Spain

Past Weather in Puerto del Rosario, Canary Islands, Spain — Yesterday and Last 2 Weeks

Currently: 68 °F. Passing clouds. (Weather station: Fuerteventura / Aeropuerto, Spain). See more current weather

Past Weather in Puerto del Rosario — Graph

°F

Puerto del Rosario Temperature Yesterday

Maximum temperature yesterday: 81 °F (at 2:30 pm)
Minimum temperature yesterday: 70 °F (at 1:30 am)
Average temperature yesterday: 74 °F

High & Low Weather Summary for the Past Weeks

 TemperatureHumidityPressure
High93 °F (Jun 10, 10:30 am)94% (Jun 8, 1:30 am)30.24 "Hg (Jun 8, 1:30 am)
Low64 °F (Jun 5, 6:00 am)23% (Jun 10, 10:30 am)29.89 "Hg (Jun 10, 7:00 am)
Average72 °F68%30.08 "Hg
* Reported Jun 3 6:00 am — Jun 18 6:30 am, Puerto del Rosario. Weather by CustomWeather, © 2021

Note: Actual official high and low records may vary slightly from our data, if they occured in-between our weather recording intervals... More about our weather records

Puerto del Rosario Weather History for the Previous 24 Hours

Scroll right to see more
 ConditionsComfort  
Time TempWeatherWind HumidityBarometerVisibility
6:30 am
Fri, Jun 18
68 °FPassing clouds.15 mph78%30.07 "HgN/A
6:00 am68 °FPassing clouds.16 mph78%30.07 "HgN/A
5:30 am70 °FMild.14 mph73%30.07 "HgN/A
5:00 am70 °FMild.16 mph73%30.07 "HgN/A
4:30 am70 °FMild.16 mph73%30.07 "HgN/A
4:00 am70 °FMild.17 mph78%30.07 "HgN/A
3:30 am70 °FMild.15 mph73%30.07 "HgN/A
3:00 am70 °FMild.14 mph73%30.07 "HgN/A
2:30 am70 °FMild.15 mph78%30.07 "HgN/A
2:00 am72 °FMild.20 mph73%30.09 "HgN/A
1:30 am72 °FMild.15 mph78%30.09 "HgN/A
1:00 am72 °FMild.16 mph78%30.09 "HgN/A
12:30 am73 °FMild.14 mph69%30.09 "HgN/A
12:00 am73 °FMild.12 mph69%30.12 "HgN/A
11:30 pm
Thu, Jun 17
73 °FMild.15 mph69%30.09 "HgN/A
11:00 pm73 °FMild.16 mph69%30.09 "HgN/A
10:30 pm73 °FPassing clouds.17 mph69%30.09 "HgN/A
10:00 pm72 °FPassing clouds.18 mph69%30.09 "HgN/A
9:30 pm72 °FPassing clouds.20 mph69%30.07 "HgN/A
9:00 pm72 °FPassing clouds.21 mph69%30.07 "HgN/A
8:30 pm73 °FPassing clouds.21 mph65%30.07 "HgN/A
8:00 pm75 °FPassing clouds.22 mph61%30.07 "HgN/A
7:30 pm77 °FScattered clouds.20 mph54%30.04 "HgN/A
7:00 pm77 °FScattered clouds.21 mph54%30.04 "HgN/A
6:30 pm77 °FScattered clouds.21 mph54%30.04 "HgN/A
6:00 pm77 °FScattered clouds.21 mph57%30.04 "HgN/A
5:30 pm77 °FScattered clouds.21 mph57%30.04 "HgN/A
5:00 pm77 °FScattered clouds.20 mph54%30.07 "HgN/A
4:30 pm77 °FPartly sunny.18 mph57%30.07 "HgN/A
4:00 pm79 °FPartly sunny.18 mph54%30.07 "HgN/A
3:30 pm79 °FPartly sunny.20 mph54%30.07 "HgN/A
3:00 pm79 °FScattered clouds.18 mph51%30.07 "HgN/A
2:30 pm81 °FScattered clouds.16 mph51%30.07 "HgN/A
2:00 pm75 °FScattered clouds.17 mph65%30.07 "HgN/A
1:30 pm79 °FScattered clouds.17 mph54%30.07 "HgN/A
1:00 pm77 °FScattered clouds.20 mph57%30.09 "HgN/A
12:30 pm79 °FScattered clouds.18 mph54%30.09 "HgN/A
12:00 pm79 °FScattered clouds.18 mph51%30.09 "HgN/A
11:30 am77 °FPartly sunny.18 mph54%30.09 "HgN/A
11:00 am77 °FPartly sunny.17 mph57%30.09 "HgN/A
10:30 am73 °FPartly sunny.16 mph69%30.09 "HgN/A
10:00 am73 °FPartly sunny.15 mph69%30.09 "HgN/A
9:30 am73 °FPartly sunny.17 mph69%30.07 "HgN/A
9:00 am72 °FPartly sunny.13 mph73%30.07 "HgN/A
8:30 am72 °FPartly sunny.14 mph73%30.07 "HgN/A
8:00 am72 °FPartly sunny.12 mph73%30.07 "HgN/A
Weather by CustomWeather, © 2021

See weather overview